sensor_id;sensor_type;location;lat;lon;timestamp;pressure;altitude;pressure_sealevel;temperature;humidity
9059;BME280;4564;42.034;25.834;2023-05-24T00:00:59;99917.16;;;13.93;100.00
9059;BME280;4564;42.034;25.834;2023-05-24T00:03:26;99919.88;;;13.93;100.00
9059;BME280;4564;42.034;25.834;2023-05-24T00:05:55;99912.56;;;13.86;100.00
9059;BME280;4564;42.034;25.834;2023-05-24T00:08:21;99912.75;;;13.85;100.00
9059;BME280;4564;42.034;25.834;2023-05-24T00:10:48;99902.25;;;13.88;100.00
9059;BME280;4564;42.034;25.834;2023-05-24T00:13:14;99910.22;;;13.90;100.00
9059;BME280;4564;42.034;25.834;2023-05-24T00:15:41;99911.25;;;13.96;100.00
9059;BME280;4564;42.034;25.834;2023-05-24T00:18:09;99914.84;;;13.90;100.00
9059;BME280;4564;42.034;25.834;2023-05-24T00:20:36;99914.84;;;13.90;100.00
9059;BME280;4564;42.034;25.834;2023-05-24T00:23:02;99907.69;;;13.88;100.00
9059;BME280;4564;42.034;25.834;2023-05-24T00:25:29;99913.59;;;13.85;100.00
9059;BME280;4564;42.034;25.834;2023-05-24T00:27:55;99913.19;;;13.82;100.00
9059;BME280;4564;42.034;25.834;2023-05-24T00:30:22;99913.19;;;13.82;100.00
9059;BME280;4564;42.034;25.834;2023-05-24T00:32:49;99911.28;;;13.82;100.00
9059;BME280;4564;42.034;25.834;2023-05-24T00:35:17;99913.84;;;13.77;100.00
9059;BME280;4564;42.034;25.834;2023-05-24T00:37:43;99911.66;;;13.55;100.00
9059;BME280;4564;42.034;25.834;2023-05-24T00:40:10;99918.66;;;13.24;100.00
9059;BME280;4564;42.034;25.834;2023-05-24T00:42:37;99919.13;;;13.15;100.00
9059;BME280;4564;42.034;25.834;2023-05-24T00:45:04;99917.63;;;13.19;100.00
9059;BME280;4564;42.034;25.834;2023-05-24T00:47:31;99920.56;;;13.17;100.00
9059;BME280;4564;42.034;25.834;2023-05-24T00:49:59;99910.69;;;13.23;100.00
9059;BME280;4564;42.034;25.834;2023-05-24T00:52:27;99910.09;;;13.21;100.00
9059;BME280;4564;42.034;25.834;2023-05-24T00:54:54;99915.75;;;13.19;100.00
9059;BME280;4564;42.034;25.834;2023-05-24T00:57:20;99912.81;;;13.21;100.00
9059;BME280;4564;42.034;25.834;2023-05-24T00:59:48;99917.22;;;13.22;100.00
9059;BME280;4564;42.034;25.834;2023-05-24T01:02:14;99914.72;;;13.14;100.00
9059;BME280;4564;42.034;25.834;2023-05-24T01:04:42;99918.69;;;13.04;100.00
9059;BME280;4564;42.034;25.834;2023-05-24T01:07:13;99918.28;;;12.94;100.00
9059;BME280;4564;42.034;25.834;2023-05-24T01:09:47;99920.56;;;12.97;100.00
9059;BME280;4564;42.034;25.834;2023-05-24T01:12:18;99916.81;;;12.98;100.00
9059;BME280;4564;42.034;25.834;2023-05-24T01:14:50;99924.78;;;13.00;100.00
9059;BME280;4564;42.034;25.834;2023-05-24T01:17:20;99916.38;;;13.08;100.00
9059;BME280;4564;42.034;25.834;2023-05-24T01:19:51;99911.75;;;13.09;100.00
9059;BME280;4564;42.034;25.834;2023-05-24T01:25:26;99917.63;;;13.19;100.00
9059;BME280;4564;42.034;25.834;2023-05-24T01:28:02;99921.00;;;13.14;100.00
9059;BME280;4564;42.034;25.834;2023-05-24T01:30:30;99916.16;;;13.10;100.00
9059;BME280;4564;42.034;25.834;2023-05-24T01:32:57;99917.00;;;13.03;100.00
9059;BME280;4564;42.034;25.834;2023-05-24T01:35:24;99918.88;;;13.03;100.00
9059;BME280;4564;42.034;25.834;2023-05-24T01:37:51;99914.06;;;13.05;100.00
9059;BME280;4564;42.034;25.834;2023-05-24T01:40:17;99919.72;;;13.03;100.00
9059;BME280;4564;42.034;25.834;2023-05-24T01:42:46;99910.50;;;13.04;100.00
9059;BME280;4564;42.034;25.834;2023-05-24T01:45:17;99913.25;;;12.98;100.00
9059;BME280;4564;42.034;25.834;2023-05-24T01:47:50;99916.41;;;12.88;100.00
9059;BME280;4564;42.034;25.834;2023-05-24T01:50:22;99916.41;;;12.95;100.00
9059;BME280;4564;42.034;25.834;2023-05-24T01:52:50;99915.78;;;12.93;100.00
9059;BME280;4564;42.034;25.834;2023-05-24T01:55:17;99913.25;;;12.85;100.00
9059;BME280;4564;42.034;25.834;2023-05-24T01:57:45;99917.44;;;12.87;100.00
9059;BME280;4564;42.034;25.834;2023-05-24T02:00:13;99925.63;;;12.87;100.00
9059;BME280;4564;42.034;25.834;2023-05-24T02:02:41;99917.66;;;12.86;100.00
9059;BME280;4564;42.034;25.834;2023-05-24T02:05:08;99922.91;;;12.81;100.00
9059;BME280;4564;42.034;25.834;2023-05-24T02:07:35;99914.97;;;12.79;100.00
9059;BME280;4564;42.034;25.834;2023-05-24T02:10:02;99919.78;;;12.84;100.00
9059;BME280;4564;42.034;25.834;2023-05-24T02:12:29;99915.56;;;12.81;100.00
9059;BME280;4564;42.034;25.834;2023-05-24T02:14:56;99916.41;;;12.75;100.00
9059;BME280;4564;42.034;25.834;2023-05-24T02:17:23;99919.34;;;12.60;100.00
9059;BME280;4564;42.034;25.834;2023-05-24T02:19:52;99924.78;;;12.54;100.00
9059;BME280;4564;42.034;25.834;2023-05-24T02:22:18;99929.81;;;12.50;100.00
9059;BME280;4564;42.034;25.834;2023-05-24T02:24:48;99928.16;;;12.49;100.00
9059;BME280;4564;42.034;25.834;2023-05-24T02:27:15;99941.13;;;12.54;100.00
9059;BME280;4564;42.034;25.834;2023-05-24T02:29:41;99933.59;;;12.56;100.00
9059;BME280;4564;42.034;25.834;2023-05-24T02:32:08;99939.44;;;12.53;100.00
9059;BME280;4564;42.034;25.834;2023-05-24T02:34:34;99936.50;;;12.35;100.00
9059;BME280;4564;42.034;25.834;2023-05-24T02:37:02;99933.34;;;12.18;100.00
9059;BME280;4564;42.034;25.834;2023-05-24T02:39:30;99945.66;;;12.07;100.00
9059;BME280;4564;42.034;25.834;2023-05-24T02:41:56;99946.72;;;12.06;100.00
9059;BME280;4564;42.034;25.834;2023-05-24T02:44:23;99949.63;;;11.98;100.00
9059;BME280;4564;42.034;25.834;2023-05-24T02:46:50;99945.22;;;11.97;100.00
9059;BME280;4564;42.034;25.834;2023-05-24T02:49:16;99942.09;;;12.07;100.00
9059;BME280;4564;42.034;25.834;2023-05-24T02:51:43;99948.19;;;12.15;100.00
9059;BME280;4564;42.034;25.834;2023-05-24T02:54:11;99956.16;;;12.24;100.00
9059;BME280;4564;42.034;25.834;2023-05-24T02:56:37;99955.13;;;12.31;100.00
9059;BME280;4564;42.034;25.834;2023-05-24T02:59:05;99953.25;;;12.32;100.00
9059;BME280;4564;42.034;25.834;2023-05-24T03:01:31;99953.25;;;12.38;100.00
9059;BME280;4564;42.034;25.834;2023-05-24T03:03:59;99948.25;;;12.48;100.00
9059;BME280;4564;42.034;25.834;2023-05-24T03:06:26;99962.06;;;12.47;100.00
9059;BME280;4564;42.034;25.834;2023-05-24T03:08:53;99959.97;;;12.49;100.00
9059;BME280;4564;42.034;25.834;2023-05-24T03:11:21;99957.47;;;12.41;100.00
9059;BME280;4564;42.034;25.834;2023-05-24T03:13:48;99957.03;;;12.44;100.00
9059;BME280;4564;42.034;25.834;2023-05-24T03:16:14;99952.84;;;12.48;100.00
9059;BME280;4564;42.034;25.834;2023-05-24T03:18:42;99956.41;;;12.55;100.00
9059;BME280;4564;42.034;25.834;2023-05-24T03:21:08;99957.25;;;12.62;100.00
9059;BME280;4564;42.034;25.834;2023-05-24T03:23:35;99966.25;;;12.76;100.00
9059;BME280;4564;42.034;25.834;2023-05-24T03:26:01;99962.72;;;12.88;100.00
9059;BME280;4564;42.034;25.834;2023-05-24T03:28:29;99974.00;;;13.05;100.00
9059;BME280;4564;42.034;25.834;2023-05-24T03:30:57;99958.31;;;13.14;100.00
9059;BME280;4564;42.034;25.834;2023-05-24T03:33:25;99968.75;;;13.30;100.00
9059;BME280;4564;42.034;25.834;2023-05-24T03:35:51;99963.75;;;13.27;100.00
9059;BME280;4564;42.034;25.834;2023-05-24T03:38:18;99972.75;;;13.21;100.00
9059;BME280;4564;42.034;25.834;2023-05-24T03:40:44;99963.31;;;12.97;100.00
9059;BME280;4564;42.034;25.834;2023-05-24T03:43:11;99977.16;;;13.22;100.00
9059;BME280;4564;42.034;25.834;2023-05-24T03:45:39;99969.34;;;13.45;100.00
9059;BME280;4564;42.034;25.834;2023-05-24T03:48:05;99976.19;;;13.67;100.00
9059;BME280;4564;42.034;25.834;2023-05-24T03:50:32;99971.69;;;13.93;100.00
9059;BME280;4564;42.034;25.834;2023-05-24T03:52:58;99975.03;;;14.39;100.00
9059;BME280;4564;42.034;25.834;2023-05-24T03:55:25;99966.66;;;14.65;100.00
9059;BME280;4564;42.034;25.834;2023-05-24T03:57:51;99978.38;;;14.73;100.00
9059;BME280;4564;42.034;25.834;2023-05-24T04:00:18;99981.78;;;14.93;100.00
9059;BME280;4564;42.034;25.834;2023-05-24T04:02:46;99981.41;;;14.89;100.00
9059;BME280;4564;42.034;25.834;2023-05-24T04:05:13;99984.03;;;14.96;100.00
9059;BME280;4564;42.034;25.834;2023-05-24T04:07:40;99993.97;;;14.90;99.38
9059;BME280;4564;42.034;25.834;2023-05-24T04:10:08;99993.09;;;14.40;100.00
9059;BME280;4564;42.034;25.834;2023-05-24T04:12:34;99989.22;;;14.10;100.00
9059;BME280;4564;42.034;25.834;2023-05-24T04:15:01;99990.81;;;13.93;100.00
9059;BME280;4564;42.034;25.834;2023-05-24T04:17:29;99990.81;;;13.93;100.00
9059;BME280;4564;42.034;25.834;2023-05-24T04:20:00;99993.78;;;13.78;100.00
9059;BME280;4564;42.034;25.834;2023-05-24T04:22:28;99996.63;;;13.38;100.00
9059;BME280;4564;42.034;25.834;2023-05-24T04:24:55;99995.16;;;13.42;100.00
9059;BME280;4564;42.034;25.834;2023-05-24T04:27:22;99991.31;;;13.63;100.00
9059;BME280;4564;42.034;25.834;2023-05-24T04:29:50;99992.06;;;13.90;100.00
9059;BME280;4564;42.034;25.834;2023-05-24T04:32:17;99993.13;;;14.27;100.00
9059;BME280;4564;42.034;25.834;2023-05-24T04:34:44;99995.97;;;14.52;100.00
9059;BME280;4564;42.034;25.834;2023-05-24T04:37:12;99993.59;;;14.62;100.00
9059;BME280;4564;42.034;25.834;2023-05-24T04:39:41;99994.13;;;14.95;100.00
9059;BME280;4564;42.034;25.834;2023-05-24T04:42:08;99992.34;;;15.32;98.61
9059;BME280;4564;42.034;25.834;2023-05-24T04:44:34;99988.13;;;15.73;99.33
9059;BME280;4564;42.034;25.834;2023-05-24T04:47:01;99985.91;;;16.00;97.37
9059;BME280;4564;42.034;25.834;2023-05-24T04:49:28;99985.97;;;16.11;96.51
9059;BME280;4564;42.034;25.834;2023-05-24T04:51:54;99996.56;;;16.08;97.45
9059;BME280;4564;42.034;25.834;2023-05-24T04:54:22;99989.47;;;16.48;96.90
9059;BME280;4564;42.034;25.834;2023-05-24T04:56:49;99994.84;;;16.96;95.31
9059;BME280;4564;42.034;25.834;2023-05-24T04:59:16;100004.91;;;17.60;91.99
9059;BME280;4564;42.034;25.834;2023-05-24T05:01:42;100010.75;;;17.76;90.63
9059;BME280;4564;42.034;25.834;2023-05-24T05:04:09;99996.53;;;17.79;90.72
9059;BME280;4564;42.034;25.834;2023-05-24T05:06:36;100007.75;;;17.77;90.93
9059;BME280;4564;42.034;25.834;2023-05-24T05:09:04;99999.03;;;17.92;92.21
9059;BME280;4564;42.034;25.834;2023-05-24T05:11:34;99998.28;;;18.08;90.59
9059;BME280;4564;42.034;25.834;2023-05-24T05:14:01;100002.06;;;18.19;90.47
9059;BME280;4564;42.034;25.834;2023-05-24T05:16:28;99999.19;;;18.42;89.17
9059;BME280;4564;42.034;25.834;2023-05-24T05:18:54;100003.97;;;18.18;90.63
9059;BME280;4564;42.034;25.834;2023-05-24T05:21:21;100003.94;;;18.30;90.96
9059;BME280;4564;42.034;25.834;2023-05-24T05:23:47;100005.47;;;18.82;89.55
9059;BME280;4564;42.034;25.834;2023-05-24T05:26:14;100003.31;;;19.18;87.71
9059;BME280;4564;42.034;25.834;2023-05-24T05:28:42;99998.41;;;19.53;86.41
9059;BME280;4564;42.034;25.834;2023-05-24T05:31:08;100003.44;;;20.22;84.75
9059;BME280;4564;42.034;25.834;2023-05-24T05:33:35;99999.31;;;21.00;81.48
9059;BME280;4564;42.034;25.834;2023-05-24T05:36:02;100008.88;;;21.56;78.98
9059;BME280;4564;42.034;25.834;2023-05-24T05:38:29;100007.53;;;22.93;75.41
9059;BME280;4564;42.034;25.834;2023-05-24T05:40:55;100021.16;;;24.35;69.57
9059;BME280;4564;42.034;25.834;2023-05-24T05:43:22;100021.19;;;25.52;64.13
9059;BME280;4564;42.034;25.834;2023-05-24T05:45:50;100014.88;;;26.84;59.83
9059;BME280;4564;42.034;25.834;2023-05-24T05:48:17;100013.09;;;27.44;57.14
9059;BME280;4564;42.034;25.834;2023-05-24T05:50:43;100017.94;;;28.66;53.15
9059;BME280;4564;42.034;25.834;2023-05-24T05:53:10;100026.03;;;29.26;50.37
9059;BME280;4564;42.034;25.834;2023-05-24T05:55:36;100018.69;;;29.83;49.66
9059;BME280;4564;42.034;25.834;2023-05-24T05:58:03;100017.38;;;30.20;47.28
9059;BME280;4564;42.034;25.834;2023-05-24T06:00:30;100025.84;;;30.46;46.90
9059;BME280;4564;42.034;25.834;2023-05-24T06:02:58;100023.75;;;30.03;46.41
9059;BME280;4564;42.034;25.834;2023-05-24T06:05:24;100026.50;;;30.43;46.93
9059;BME280;4564;42.034;25.834;2023-05-24T06:07:51;100025.97;;;31.32;44.11
9059;BME280;4564;42.034;25.834;2023-05-24T06:10:17;100035.38;;;31.62;42.77
9059;BME280;4564;42.034;25.834;2023-05-24T06:12:44;100031.41;;;31.63;42.33
9059;BME280;4564;42.034;25.834;2023-05-24T06:15:10;100042.81;;;31.23;42.86
9059;BME280;4564;42.034;25.834;2023-05-24T06:17:38;100037.47;;;31.74;42.21
9059;BME280;4564;42.034;25.834;2023-05-24T06:20:08;100048.91;;;32.53;39.42
9059;BME280;4564;42.034;25.834;2023-05-24T06:22:39;100041.75;;;33.06;38.25
9059;BME280;4564;42.034;25.834;2023-05-24T06:25:08;100041.22;;;33.66;36.33
9059;BME280;4564;42.034;25.834;2023-05-24T06:27:34;100043.91;;;33.09;37.92
9059;BME280;4564;42.034;25.834;2023-05-24T06:30:01;100044.50;;;32.73;38.60
9059;BME280;4564;42.034;25.834;2023-05-24T06:32:28;100040.72;;;33.31;38.31
9059;BME280;4564;42.034;25.834;2023-05-24T06:34:54;100032.47;;;32.64;38.50
9059;BME280;4564;42.034;25.834;2023-05-24T06:37:22;100030.00;;;32.33;39.84
9059;BME280;4564;42.034;25.834;2023-05-24T06:39:49;100031.56;;;32.80;38.38
9059;BME280;4564;42.034;25.834;2023-05-24T06:42:16;100032.16;;;33.07;37.33
9059;BME280;4564;42.034;25.834;2023-05-24T06:44:42;100037.47;;;33.95;35.29
9059;BME280;4564;42.034;25.834;2023-05-24T06:47:09;100044.91;;;34.72;34.33
9059;BME280;4564;42.034;25.834;2023-05-24T06:49:36;100038.97;;;33.92;36.42
9059;BME280;4564;42.034;25.834;2023-05-24T06:52:03;100032.56;;;34.40;35.21
9059;BME280;4564;42.034;25.834;2023-05-24T06:54:33;100032.56;;;34.28;35.84
9059;BME280;4564;42.034;25.834;2023-05-24T06:57:00;100038.91;;;34.74;34.85
9059;BME280;4564;42.034;25.834;2023-05-24T06:59:27;100034.00;;;36.10;31.74
9059;BME280;4564;42.034;25.834;2023-05-24T07:01:54;100029.44;;;35.90;32.55
9059;BME280;4564;42.034;25.834;2023-05-24T07:04:21;100033.84;;;35.31;33.47
9059;BME280;4564;42.034;25.834;2023-05-24T07:06:48;100037.31;;;35.68;32.18
9059;BME280;4564;42.034;25.834;2023-05-24T07:09:15;100029.19;;;35.11;32.91
9059;BME280;4564;42.034;25.834;2023-05-24T07:11:42;100028.94;;;35.16;33.85
9059;BME280;4564;42.034;25.834;2023-05-24T07:14:09;100031.84;;;34.68;34.46
9059;BME280;4564;42.034;25.834;2023-05-24T07:16:35;100032.16;;;35.03;34.68
9059;BME280;4564;42.034;25.834;2023-05-24T07:19:02;100035.63;;;35.52;33.75
9059;BME280;4564;42.034;25.834;2023-05-24T07:21:29;100030.28;;;36.06;32.39
9059;BME280;4564;42.034;25.834;2023-05-24T07:23:56;100032.00;;;36.10;32.53
9059;BME280;4564;42.034;25.834;2023-05-24T07:26:22;100032.16;;;35.86;33.05
9059;BME280;4564;42.034;25.834;2023-05-24T07:28:50;100027.66;;;34.49;34.72
9059;BME280;4564;42.034;25.834;2023-05-24T07:31:17;100027.66;;;35.42;33.91
9059;BME280;4564;42.034;25.834;2023-05-24T07:33:43;100036.38;;;35.92;31.57
9059;BME280;4564;42.034;25.834;2023-05-24T07:36:10;100035.09;;;36.68;29.08
9059;BME280;4564;42.034;25.834;2023-05-24T07:38:36;100041.38;;;37.51;27.79
9059;BME280;4564;42.034;25.834;2023-05-24T07:41:03;100034.09;;;36.95;28.67
9059;BME280;4564;42.034;25.834;2023-05-24T07:43:32;100034.44;;;35.81;30.39
9059;BME280;4564;42.034;25.834;2023-05-24T07:46:00;100025.38;;;36.18;29.19
9059;BME280;4564;42.034;25.834;2023-05-24T07:48:26;100038.31;;;37.40;28.37
9059;BME280;4564;42.034;25.834;2023-05-24T07:50:53;100037.94;;;36.37;30.61
9059;BME280;4564;42.034;25.834;2023-05-24T07:53:20;100037.69;;;36.77;29.06
9059;BME280;4564;42.034;25.834;2023-05-24T07:55:48;100032.63;;;36.67;29.58
9059;BME280;4564;42.034;25.834;2023-05-24T07:58:14;100025.66;;;36.80;29.48
9059;BME280;4564;42.034;25.834;2023-05-24T08:00:41;100037.78;;;37.73;28.60
9059;BME280;4564;42.034;25.834;2023-05-24T08:03:09;100030.00;;;37.89;28.77
9059;BME280;4564;42.034;25.834;2023-05-24T08:05:38;100033.91;;;37.23;29.42
9059;BME280;4564;42.034;25.834;2023-05-24T08:08:05;100025.44;;;35.19;34.01
9059;BME280;4564;42.034;25.834;2023-05-24T08:10:31;100015.50;;;33.88;34.70
9059;BME280;4564;42.034;25.834;2023-05-24T08:12:58;100018.31;;;33.02;33.62
9059;BME280;4564;42.034;25.834;2023-05-24T08:15:25;100019.75;;;31.90;37.97
9059;BME280;4564;42.034;25.834;2023-05-24T08:17:51;100013.94;;;30.97;38.52
9059;BME280;4564;42.034;25.834;2023-05-24T08:20:19;100005.38;;;31.11;37.49
9059;BME280;4564;42.034;25.834;2023-05-24T08:22:46;100015.53;;;30.64;38.88
9059;BME280;4564;42.034;25.834;2023-05-24T08:25:13;100010.03;;;29.93;41.02
9059;BME280;4564;42.034;25.834;2023-05-24T08:27:40;100008.06;;;29.94;40.65
9059;BME280;4564;42.034;25.834;2023-05-24T08:30:07;100014.88;;;30.10;39.84
9059;BME280;4564;42.034;25.834;2023-05-24T08:32:33;100015.63;;;30.33;39.65
9059;BME280;4564;42.034;25.834;2023-05-24T08:35:00;100013.81;;;30.28;38.89
9059;BME280;4564;42.034;25.834;2023-05-24T08:37:28;100006.09;;;29.94;38.72
9059;BME280;4564;42.034;25.834;2023-05-24T08:39:56;100004.84;;;29.78;39.10
9059;BME280;4564;42.034;25.834;2023-05-24T08:42:23;100009.38;;;29.66;39.72
9059;BME280;4564;42.034;25.834;2023-05-24T08:44:51;100010.31;;;29.52;40.79
9059;BME280;4564;42.034;25.834;2023-05-24T08:47:18;100008.50;;;29.12;40.86
9059;BME280;4564;42.034;25.834;2023-05-24T08:49:46;100010.25;;;28.86;41.41
9059;BME280;4564;42.034;25.834;2023-05-24T08:52:13;100012.28;;;28.30;43.87
9059;BME280;4564;42.034;25.834;2023-05-24T08:54:41;100022.53;;;28.35;45.71
9059;BME280;4564;42.034;25.834;2023-05-24T08:57:08;100020.03;;;28.06;45.86
9059;BME280;4564;42.034;25.834;2023-05-24T08:59:36;100014.41;;;27.65;47.52
9059;BME280;4564;42.034;25.834;2023-05-24T09:02:04;100009.03;;;27.55;47.88
9059;BME280;4564;42.034;25.834;2023-05-24T09:04:31;100017.63;;;27.72;47.17
9059;BME280;4564;42.034;25.834;2023-05-24T09:06:58;100008.63;;;27.62;45.62
9059;BME280;4564;42.034;25.834;2023-05-24T09:09:26;100015.03;;;27.62;46.22
9059;BME280;4564;42.034;25.834;2023-05-24T09:11:55;100021.28;;;28.00;43.74
9059;BME280;4564;42.034;25.834;2023-05-24T09:14:22;100014.84;;;27.86;45.36
9059;BME280;4564;42.034;25.834;2023-05-24T09:16:49;100015.28;;;27.79;43.46
9059;BME280;4564;42.034;25.834;2023-05-24T09:19:16;100017.53;;;27.77;44.55
9059;BME280;4564;42.034;25.834;2023-05-24T09:21:44;100021.97;;;27.78;44.86
9059;BME280;4564;42.034;25.834;2023-05-24T09:24:11;100012.31;;;27.25;44.23
9059;BME280;4564;42.034;25.834;2023-05-24T09:26:38;100018.47;;;27.40;44.82
9059;BME280;4564;42.034;25.834;2023-05-24T09:29:07;100021.16;;;27.45;44.63
9059;BME280;4564;42.034;25.834;2023-05-24T09:31:34;100019.94;;;27.00;43.84
9059;BME280;4564;42.034;25.834;2023-05-24T09:34:01;100023.03;;;26.80;44.41
9059;BME280;4564;42.034;25.834;2023-05-24T09:36:29;100021.34;;;26.79;44.82
9059;BME280;4564;42.034;25.834;2023-05-24T09:39:07;100019.28;;;26.90;45.63
9059;BME280;4564;42.034;25.834;2023-05-24T09:41:34;100017.06;;;27.05;43.14
9059;BME280;4564;42.034;25.834;2023-05-24T09:44:01;100018.78;;;26.88;43.70
9059;BME280;4564;42.034;25.834;2023-05-24T09:46:29;100016.97;;;26.73;44.58
9059;BME280;4564;42.034;25.834;2023-05-24T09:49:01;100013.25;;;27.01;42.67
9059;BME280;4564;42.034;25.834;2023-05-24T09:51:30;100019.94;;;27.00;43.36
9059;BME280;4564;42.034;25.834;2023-05-24T09:53:57;100007.97;;;27.00;44.25
9059;BME280;4564;42.034;25.834;2023-05-24T09:56:26;100006.25;;;27.04;46.30
9059;BME280;4564;42.034;25.834;2023-05-24T09:58:52;100014.75;;;27.45;43.52
9059;BME280;4564;42.034;25.834;2023-05-24T10:01:21;100008.00;;;27.65;43.33
9059;BME280;4564;42.034;25.834;2023-05-24T10:03:52;100004.31;;;27.83;42.51
9059;BME280;4564;42.034;25.834;2023-05-24T10:06:19;100003.47;;;27.82;41.35
9059;BME280;4564;42.034;25.834;2023-05-24T10:08:46;100007.91;;;27.70;42.84
9059;BME280;4564;42.034;25.834;2023-05-24T10:11:13;100000.75;;;27.50;44.18
9059;BME280;4564;42.034;25.834;2023-05-24T10:13:40;100005.75;;;27.80;42.64
9059;BME280;4564;42.034;25.834;2023-05-24T10:16:06;100002.25;;;28.02;43.09
9059;BME280;4564;42.034;25.834;2023-05-24T10:18:33;99996.75;;;27.97;42.00
9059;BME280;4564;42.034;25.834;2023-05-24T10:21:01;99991.88;;;27.62;43.96
9059;BME280;4564;42.034;25.834;2023-05-24T10:23:32;99990.41;;;27.18;45.47
9059;BME280;4564;42.034;25.834;2023-05-24T10:26:02;99989.13;;;27.10;45.84
9059;BME280;4564;42.034;25.834;2023-05-24T10:28:31;99993.13;;;26.86;47.10
9059;BME280;4564;42.034;25.834;2023-05-24T10:31:00;99990.59;;;26.89;45.95
9059;BME280;4564;42.034;25.834;2023-05-24T10:33:27;99991.66;;;26.93;46.13
9059;BME280;4564;42.034;25.834;2023-05-24T10:35:54;99989.38;;;26.95;47.05
9059;BME280;4564;42.034;25.834;2023-05-24T10:38:23;99985.84;;;27.08;44.67
9059;BME280;4564;42.034;25.834;2023-05-24T10:40:50;99983.66;;;27.05;45.26
9059;BME280;4564;42.034;25.834;2023-05-24T10:43:17;99985.47;;;26.96;46.28
9059;BME280;4564;42.034;25.834;2023-05-24T10:45:47;99989.13;;;27.10;45.58
9059;BME280;4564;42.034;25.834;2023-05-24T10:51:30;99965.97;;;26.96;44.67
9059;BME280;4564;42.034;25.834;2023-05-24T10:54:12;99957.53;;;27.01;44.80
9059;BME280;4564;42.034;25.834;2023-05-24T10:56:39;99961.22;;;26.78;44.86
9059;BME280;4564;42.034;25.834;2023-05-24T10:59:06;99953.53;;;27.07;44.70
9059;BME280;4564;42.034;25.834;2023-05-24T11:01:32;99944.78;;;27.14;45.82
9059;BME280;4564;42.034;25.834;2023-05-24T11:04:06;99950.63;;;27.45;45.46
9059;BME280;4564;42.034;25.834;2023-05-24T11:06:45;99941.19;;;27.27;44.78
9059;BME280;4564;42.034;25.834;2023-05-24T11:09:14;99946.09;;;27.49;43.86
9059;BME280;4564;42.034;25.834;2023-05-24T11:11:45;99953.66;;;27.16;43.37
9059;BME280;4564;42.034;25.834;2023-05-24T11:14:13;99953.00;;;27.05;43.51
9059;BME280;4564;42.034;25.834;2023-05-24T11:16:43;99950.44;;;27.09;44.72
9059;BME280;4564;42.034;25.834;2023-05-24T11:19:11;99955.94;;;27.14;45.16
9059;BME280;4564;42.034;25.834;2023-05-24T11:21:38;99948.78;;;27.08;44.27
9059;BME280;4564;42.034;25.834;2023-05-24T11:24:05;99944.41;;;27.34;46.49
9059;BME280;4564;42.034;25.834;2023-05-24T11:26:33;99945.72;;;27.55;43.22
9059;BME280;4564;42.034;25.834;2023-05-24T11:29:00;99942.94;;;27.55;44.43
9059;BME280;4564;42.034;25.834;2023-05-24T11:31:27;99948.00;;;27.67;43.28
9059;BME280;4564;42.034;25.834;2023-05-24T11:33:53;99931.97;;;27.86;41.15
9059;BME280;4564;42.034;25.834;2023-05-24T11:36:20;99932.50;;;27.88;41.98
9059;BME280;4564;42.034;25.834;2023-05-24T11:38:47;99925.97;;;28.34;41.59
9059;BME280;4564;42.034;25.834;2023-05-24T11:41:14;99926.94;;;28.52;41.45
9059;BME280;4564;42.034;25.834;2023-05-24T11:43:43;99924.72;;;28.76;41.41
9059;BME280;4564;42.034;25.834;2023-05-24T11:46:10;99923.41;;;29.27;39.42
9059;BME280;4564;42.034;25.834;2023-05-24T11:48:36;99915.94;;;29.36;38.41
9059;BME280;4564;42.034;25.834;2023-05-24T11:51:03;99909.16;;;29.68;39.08
9059;BME280;4564;42.034;25.834;2023-05-24T11:53:30;99908.19;;;29.72;40.32
9059;BME280;4564;42.034;25.834;2023-05-24T11:55:56;99908.28;;;29.58;38.12
9059;BME280;4564;42.034;25.834;2023-05-24T11:58:24;99903.25;;;29.38;38.43
9059;BME280;4564;42.034;25.834;2023-05-24T12:00:52;99903.78;;;29.18;38.92
9059;BME280;4564;42.034;25.834;2023-05-24T12:03:18;99904.72;;;28.83;40.22
9059;BME280;4564;42.034;25.834;2023-05-24T12:05:45;99907.81;;;28.45;39.71
9059;BME280;4564;42.034;25.834;2023-05-24T12:08:14;99914.81;;;28.20;41.20
9059;BME280;4564;42.034;25.834;2023-05-24T12:10:41;99900.66;;;28.03;41.53
9059;BME280;4564;42.034;25.834;2023-05-24T12:13:17;99913.19;;;27.78;43.51
9059;BME280;4564;42.034;25.834;2023-05-24T12:15:47;99910.41;;;27.51;44.77
9059;BME280;4564;42.034;25.834;2023-05-24T12:18:18;99914.16;;;27.28;44.71
9059;BME280;4564;42.034;25.834;2023-05-24T12:20:45;99933.59;;;27.00;47.74
9059;BME280;4564;42.034;25.834;2023-05-24T12:23:11;99927.75;;;26.03;51.35
9059;BME280;4564;42.034;25.834;2023-05-24T12:25:39;99930.56;;;25.56;53.73
9059;BME280;4564;42.034;25.834;2023-05-24T12:28:06;99919.53;;;25.17;54.24
9059;BME280;4564;42.034;25.834;2023-05-24T12:30:32;99913.94;;;24.93;56.08
9059;BME280;4564;42.034;25.834;2023-05-24T12:33:07;99915.25;;;25.00;54.35
9059;BME280;4564;42.034;25.834;2023-05-24T12:35:35;99913.03;;;25.02;53.68
9059;BME280;4564;42.034;25.834;2023-05-24T12:38:01;99917.97;;;25.05;52.15
9059;BME280;4564;42.034;25.834;2023-05-24T12:40:31;99920.56;;;24.97;50.97
9059;BME280;4564;42.034;25.834;2023-05-24T12:42:57;99918.41;;;24.94;49.23
9059;BME280;4564;42.034;25.834;2023-05-24T12:45:25;99925.00;;;24.98;47.58
9059;BME280;4564;42.034;25.834;2023-05-24T12:47:52;99926.03;;;25.07;46.63
9059;BME280;4564;42.034;25.834;2023-05-24T12:50:19;99923.25;;;25.07;46.84
9059;BME280;4564;42.034;25.834;2023-05-24T12:52:48;99925.97;;;25.12;48.76
9059;BME280;4564;42.034;25.834;2023-05-24T12:55:17;99936.22;;;25.17;50.47
9059;BME280;4564;42.034;25.834;2023-05-24T12:57:44;99940.94;;;25.16;52.89
9059;BME280;4564;42.034;25.834;2023-05-24T13:00:17;99937.84;;;24.89;52.96
9059;BME280;4564;42.034;25.834;2023-05-24T13:02:44;99935.78;;;24.65;52.78
9059;BME280;4564;42.034;25.834;2023-05-24T13:05:10;99934.66;;;24.72;52.61
9059;BME280;4564;42.034;25.834;2023-05-24T13:07:37;99942.28;;;24.85;53.38
9059;BME280;4564;42.034;25.834;2023-05-24T13:10:06;99945.38;;;25.17;51.32